Time;durP1;ratioP1;P1;durP2;ratioP2;P2;SDS_P1;SDS_P2;PMS_P1;PMS_P2;Temp;Humidity;BMP_temperature;BMP_pressure;BME280_temperature;BME280_humidity;BME280_pressure;Samples;Min_cycle;Max_cycle;Signal;HPM_P1;HPM_P2
2023/05/22 00:01:38;;;;;;;14.15;9.55;;;;;;;16.32;82.14;101364.34;5035317;28;20017;-77
2023/05/22 00:04:03;;;;;;;13.98;10.23;;;;;;;16.33;82.08;101376.56;5036094;28;20034;-77
2023/05/22 00:06:29;;;;;;;15.85;10.07;;;;;;;16.32;82.45;101380.09;5036268;28;20052;-77
2023/05/22 00:08:54;;;;;;;13.88;9.98;;;;;;;16.33;82.24;101377.41;5036244;28;20337;-78
2023/05/22 00:11:21;;;;;;;16.40;9.90;;;;;;;16.32;81.94;101385.38;5035983;28;20032;-77
2023/05/22 00:13:46;;;;;;;13.48;9.90;;;;;;;16.33;82.45;101373.94;5035740;28;20017;-77
2023/05/22 00:16:11;;;;;;;14.32;9.75;;;;;;;16.34;82.22;101379.13;5035790;28;20393;-77
2023/05/22 00:18:37;;;;;;;16.13;10.35;;;;;;;16.32;81.75;101375.69;5035816;28;20061;-77
2023/05/22 00:21:02;;;;;;;15.20;10.35;;;;;;;16.28;82.35;101378.53;5036011;28;20461;-77
2023/05/22 00:23:28;;;;;;;14.23;9.57;;;;;;;16.23;82.48;101373.47;5034968;28;20033;-77
2023/05/22 00:25:54;;;;;;;16.80;10.25;;;;;;;16.17;82.68;101366.69;5034988;28;20045;-77
2023/05/22 00:28:19;;;;;;;14.52;9.85;;;;;;;16.12;83.18;101360.78;5035690;28;20075;-77
2023/05/22 00:30:44;;;;;;;16.95;9.52;;;;;;;16.06;83.75;101361.00;5035617;28;20021;-78
2023/05/22 00:33:11;;;;;;;16.15;9.63;;;;;;;16.02;83.25;101360.28;5035451;28;20022;-77
2023/05/22 00:35:36;;;;;;;16.10;10.35;;;;;;;15.99;83.78;101368.28;5034509;28;20033;-77
2023/05/22 00:38:03;;;;;;;16.05;10.10;;;;;;;15.99;83.88;101372.69;5035764;28;20481;-77
2023/05/22 00:40:28;;;;;;;14.45;9.75;;;;;;;15.95;83.98;101360.59;5035383;28;20025;-77
2023/05/22 00:42:53;;;;;;;15.95;9.75;;;;;;;15.95;84.04;101365.84;5035369;28;20028;-77
2023/05/22 00:45:19;;;;;;;15.52;10.02;;;;;;;15.91;84.43;101365.13;5035420;28;20112;-78
2023/05/22 00:47:45;;;;;;;14.82;9.98;;;;;;;15.87;84.58;101367.03;5035544;28;20033;-77
2023/05/22 00:50:11;;;;;;;16.55;10.25;;;;;;;15.83;84.74;101368.03;5035147;28;20394;-77
2023/05/22 00:52:40;;;;;;;15.07;10.32;;;;;;;15.80;84.94;101364.69;5035067;28;20057;-77
2023/05/22 00:55:07;;;;;;;16.02;10.52;;;;;;;15.78;84.75;101365.59;5034795;28;20052;-77
2023/05/22 00:57:33;;;;;;;14.55;10.35;;;;;;;15.77;85.12;101363.00;5034588;28;20108;-77
2023/05/22 01:00:01;;;;;;;14.40;10.10;;;;;;;15.74;85.20;101360.50;5034925;28;20105;-77
2023/05/22 01:02:27;;;;;;;15.23;10.23;;;;;;;15.71;85.30;101358.03;5034822;28;20036;-78
2023/05/22 01:04:56;;;;;;;15.32;10.32;;;;;;;15.69;85.57;101355.44;5035169;28;20072;-77
2023/05/22 01:07:22;;;;;;;17.05;10.00;;;;;;;15.69;85.49;101344.09;5035226;28;20022;-77
2023/05/22 01:09:47;;;;;;;15.70;10.10;;;;;;;15.68;85.62;101347.66;5034608;28;20028;-77
2023/05/22 01:12:25;;;;;;;14.77;9.77;;;;;;;15.66;85.39;101359.97;5034925;28;20426;-77
2023/05/22 01:15:16;;;;;;;14.20;10.13;;;;;;;15.66;85.51;101352.94;5034832;28;20091;-77
2023/05/22 01:17:54;;;;;;;14.68;10.43;;;;;;;15.65;85.48;101353.00;5015292;28;20041;-77
2023/05/22 01:20:26;;;;;;;15.68;9.75;;;;;;;15.59;85.76;101346.22;5015081;28;20501;-77
2023/05/22 01:23:09;;;;;;;15.23;10.00;;;;;;;15.57;85.91;101345.44;5015010;28;20030;-77
2023/05/22 01:26:02;;;;;;;13.52;9.38;;;;;;;15.55;85.69;101344.63;5020145;28;20032;-78
2023/05/22 01:28:56;;;;;;;13.25;9.32;;;;;;;15.53;85.48;101342.09;5034824;28;20029;-78
2023/05/22 01:31:27;;;;;;;14.20;9.82;;;;;;;15.52;86.20;101345.63;5034721;28;20112;-77
2023/05/22 01:33:55;;;;;;;14.20;9.90;;;;;;;15.48;86.24;101342.25;5034872;28;20021;-77
2023/05/22 01:36:21;;;;;;;15.88;10.23;;;;;;;15.48;86.66;101346.66;5034426;28;20117;-78
2023/05/22 01:38:48;;;;;;;15.48;10.80;;;;;;;15.47;86.70;101350.19;5034478;28;20044;-78
2023/05/22 01:41:15;;;;;;;15.75;10.15;;;;;;;15.44;86.86;101345.91;5034693;28;20025;-78
2023/05/22 01:43:41;;;;;;;15.07;10.48;;;;;;;15.43;86.74;101349.44;5034329;28;20591;-77
2023/05/22 01:46:06;;;;;;;16.30;10.32;;;;;;;15.40;86.99;101338.19;5034256;28;20022;-77
2023/05/22 01:48:32;;;;;;;17.38;11.35;;;;;;;15.38;87.18;101340.03;5034327;28;20037;-77
2023/05/22 01:51:04;;;;;;;16.38;11.05;;;;;;;15.34;87.52;101334.06;5034529;28;20025;-77
2023/05/22 01:53:33;;;;;;;;;;;;;;;15.39;83.94;101342.59;5034407;28;20434;-77
2023/05/22 01:56:10;;;;;;;15.50;9.93;;;;;;;15.32;86.53;101341.97;5033932;28;20011;-77
2023/05/22 01:58:51;;;;;;;19.48;11.63;;;;;;;15.29;86.76;101342.09;5034381;28;20036;-78
2023/05/22 02:01:18;;;;;;;15.73;9.95;;;;;;;15.28;87.36;101336.94;5034032;28;20436;-77
2023/05/22 02:03:45;;;;;;;15.63;10.57;;;;;;;15.27;87.71;101341.28;5033887;28;20087;-77
2023/05/22 02:06:13;;;;;;;17.05;10.50;;;;;;;15.26;87.84;101336.13;5033432;28;20040;-77
2023/05/22 02:08:40;;;;;;;14.68;9.48;;;;;;;15.26;87.82;101333.50;5033686;28;20100;-77
2023/05/22 02:11:08;;;;;;;17.33;10.68;;;;;;;15.24;87.83;101341.41;5033805;28;20021;-77
2023/05/22 02:13:34;;;;;;;14.10;10.00;;;;;;;15.22;87.91;101339.75;5033783;28;20032;-77
2023/05/22 02:16:00;;;;;;;16.45;10.43;;;;;;;15.17;87.90;101338.16;5033516;28;20025;-77
2023/05/22 02:18:29;;;;;;;16.20;10.20;;;;;;;15.15;87.84;101337.34;5033499;28;20033;-77
2023/05/22 02:20:58;;;;;;;15.10;10.50;;;;;;;15.13;87.90;101339.19;5033374;28;20029;-77
2023/05/22 02:23:23;;;;;;;15.73;10.35;;;;;;;15.11;87.99;101329.66;5033688;28;20037;-77
2023/05/22 02:25:49;;;;;;;14.88;10.05;;;;;;;15.09;88.03;101340.22;5033546;28;20377;-77
2023/05/22 02:28:14;;;;;;;15.45;10.13;;;;;;;15.07;88.01;101338.56;5033348;28;20365;-77
2023/05/22 02:30:40;;;;;;;13.95;10.02;;;;;;;15.07;87.92;101335.94;5033825;28;20492;-77
2023/05/22 02:33:05;;;;;;;15.50;10.52;;;;;;;15.07;88.23;101330.69;5033256;28;20036;-77
2023/05/22 02:35:31;;;;;;;16.23;10.38;;;;;;;15.05;88.15;101324.66;5033024;28;20029;-77
2023/05/22 02:37:56;;;;;;;16.67;10.88;;;;;;;15.04;88.18;101321.19;5033245;28;20341;-77
2023/05/22 02:40:21;;;;;;;16.02;10.88;;;;;;;15.01;88.65;101319.53;5032952;28;20029;-77
2023/05/22 02:42:47;;;;;;;16.15;10.75;;;;;;;14.98;88.50;101321.41;5033032;28;20025;-77
2023/05/22 02:45:12;;;;;;;16.50;11.07;;;;;;;14.96;88.83;101329.31;5032916;28;20025;-77
2023/05/22 02:47:38;;;;;;;17.00;11.43;;;;;;;14.93;88.75;101326.81;5033380;28;20025;-77
2023/05/22 02:50:03;;;;;;;20.98;11.35;;;;;;;14.90;89.07;101324.31;5032919;28;20033;-77
2023/05/22 02:52:29;;;;;;;16.83;10.80;;;;;;;14.86;89.18;101318.31;5032748;28;20492;-77
2023/05/22 02:54:55;;;;;;;15.77;10.85;;;;;;;14.85;89.42;101318.41;5033143;28;20026;-77
2023/05/22 02:57:20;;;;;;;16.77;10.80;;;;;;;14.81;89.45;101315.00;5032780;28;20032;-77
2023/05/22 02:59:45;;;;;;;18.63;11.45;;;;;;;14.79;89.70;101306.34;5033193;28;20446;-77
2023/05/22 03:02:11;;;;;;;18.45;11.63;;;;;;;14.79;89.83;101314.22;5032730;28;20041;-77
2023/05/22 03:04:37;;;;;;;16.70;11.43;;;;;;;14.74;90.11;101310.91;5031503;28;20030;-77
2023/05/22 03:07:03;;;;;;;19.17;11.88;;;;;;;14.69;90.12;101311.06;5031549;28;20162;-77
2023/05/22 03:09:28;;;;;;;17.15;11.10;;;;;;;14.69;90.14;101310.22;5032640;28;20174;-77
2023/05/22 03:11:54;;;;;;;17.70;10.88;;;;;;;14.66;90.32;101315.53;5032711;28;20032;-77
2023/05/22 03:14:19;;;;;;;18.13;11.10;;;;;;;14.65;90.29;101306.81;5032865;28;20025;-77
2023/05/22 03:16:44;;;;;;;17.33;11.45;;;;;;;14.64;90.24;101312.09;5032658;28;20040;-77
2023/05/22 03:19:11;;;;;;;17.98;12.02;;;;;;;14.61;90.57;101307.84;5032099;28;20368;-77
2023/05/22 03:21:37;;;;;;;17.85;11.65;;;;;;;14.59;90.60;101309.66;5032693;28;20022;-77
2023/05/22 03:24:03;;;;;;;17.15;11.35;;;;;;;14.59;90.61;101312.28;5032818;28;20028;-77
2023/05/22 03:26:28;;;;;;;17.27;11.43;;;;;;;14.59;90.65;101308.81;5032549;28;20034;-77
2023/05/22 03:28:54;;;;;;;17.65;11.93;;;;;;;14.56;90.57;101301.91;5031252;28;20444;-77
2023/05/22 03:31:20;;;;;;;18.52;11.48;;;;;;;14.53;90.71;101305.50;5032730;28;20048;-77
2023/05/22 03:33:45;;;;;;;19.27;11.70;;;;;;;14.53;90.77;101309.84;5032811;28;20454;-77
2023/05/22 03:36:10;;;;;;;17.83;11.63;;;;;;;14.52;90.98;101311.63;5031374;28;20032;-81
2023/05/22 03:38:35;;;;;;;18.80;11.55;;;;;;;14.51;91.24;101303.84;5032590;28;20365;-78
2023/05/22 03:41:01;;;;;;;16.95;11.45;;;;;;;14.51;91.25;101316.94;5032294;28;20116;-77
2023/05/22 03:43:26;;;;;;;15.85;11.10;;;;;;;14.50;91.15;101304.75;5032580;28;20469;-77
2023/05/22 03:45:51;;;;;;;17.80;11.50;;;;;;;14.51;91.17;101299.44;5031062;28;20124;-77
2023/05/22 03:48:16;;;;;;;18.48;12.43;;;;;;;14.51;90.61;101301.22;5031097;28;20056;-77
2023/05/22 03:50:42;;;;;;;17.30;11.45;;;;;;;14.49;91.21;101303.03;5032459;28;20028;-77
2023/05/22 03:53:07;;;;;;;17.80;12.23;;;;;;;14.48;91.33;101301.31;5023327;28;20046;-77
2023/05/22 03:55:32;;;;;;;19.67;12.95;;;;;;;14.49;91.18;101301.25;5025848;28;20029;-77
2023/05/22 03:57:57;;;;;;;19.20;12.45;;;;;;;14.51;91.21;101303.84;5032230;28;20037;-77
2023/05/22 04:00:23;;;;;;;19.55;12.68;;;;;;;14.53;90.97;101299.38;5032066;28;20120;-77
2023/05/22 04:02:49;;;;;;;18.60;12.98;;;;;;;14.55;90.81;101302.81;5032381;28;20026;-77
2023/05/22 04:05:15;;;;;;;20.42;12.55;;;;;;;14.55;91.08;101298.44;5032242;28;20375;-77
2023/05/22 04:07:40;;;;;;;19.63;12.65;;;;;;;14.58;91.01;101305.31;5032367;28;20037;-78
2023/05/22 04:10:06;;;;;;;20.88;13.10;;;;;;;14.61;90.98;101301.72;5032032;28;20108;-77
2023/05/22 04:12:31;;;;;;;18.63;12.38;;;;;;;14.61;90.58;101299.97;5031988;28;20116;-77
2023/05/22 04:14:56;;;;;;;20.20;12.88;;;;;;;14.62;90.50;101311.31;5032223;28;20018;-77
2023/05/22 04:17:21;;;;;;;22.00;13.18;;;;;;;14.62;90.28;101316.53;5032310;28;20037;-77
2023/05/22 04:19:47;;;;;;;18.58;13.00;;;;;;;14.59;90.11;101314.88;5031872;28;20041;-77
2023/05/22 04:22:12;;;;;;;20.52;13.50;;;;;;;14.57;89.83;101311.47;5031398;28;20491;-77
2023/05/22 04:24:38;;;;;;;20.73;13.20;;;;;;;14.55;90.36;101310.66;5032065;28;20076;-77
2023/05/22 04:27:04;;;;;;;20.65;13.60;;;;;;;14.53;90.24;101309.84;5032321;28;20025;-77
2023/05/22 04:29:30;;;;;;;21.02;13.93;;;;;;;14.54;90.30;101314.19;5030958;28;20091;-77
2023/05/22 04:31:55;;;;;;;22.75;13.82;;;;;;;14.57;90.29;101317.56;5033855;28;20469;-77
2023/05/22 04:34:20;;;;;;;21.30;13.98;;;;;;;14.60;90.12;101316.59;5035400;28;20028;-77
2023/05/22 04:36:46;;;;;;;20.77;14.13;;;;;;;14.64;90.08;101314.72;5035561;28;20029;-77
2023/05/22 04:39:15;;;;;;;21.77;14.38;;;;;;;14.65;89.83;101313.81;5034092;28;20037;-77
2023/05/22 04:41:40;;;;;;;23.83;14.13;;;;;;;14.65;89.65;101314.69;5035107;28;20036;-77
2023/05/22 04:44:06;;;;;;;23.98;14.50;;;;;;;14.67;89.79;101323.34;5035469;28;20029;-77
2023/05/22 04:46:33;;;;;;;24.15;14.07;;;;;;;14.67;89.64;101328.59;5035054;28;20043;-77
2023/05/22 04:49:00;;;;;;;22.70;15.20;;;;;;;14.65;89.41;101330.41;5032767;28;20029;-77
2023/05/22 04:51:30;;;;;;;25.75;15.20;;;;;;;14.60;89.95;101332.31;5035253;28;20018;-77
2023/05/22 04:53:57;;;;;;;25.13;14.50;;;;;;;14.61;89.66;101327.91;5035290;28;20036;-77
2023/05/22 04:56:23;;;;;;;25.23;15.38;;;;;;;14.52;89.69;101337.81;5034056;28;20040;-77
2023/05/22 04:58:48;;;;;;;22.73;15.18;;;;;;;14.48;90.14;101337.97;5035039;28;20113;-77
2023/05/22 05:01:15;;;;;;;25.60;15.52;;;;;;;14.47;90.26;101341.50;5034638;28;20104;-77
2023/05/22 05:03:40;;;;;;;25.23;14.77;;;;;;;14.48;90.45;101343.22;5035055;28;20121;-77
2023/05/22 05:06:07;;;;;;;23.65;14.90;;;;;;;14.49;90.10;101337.06;5033842;28;20104;-77
2023/05/22 05:08:32;;;;;;;23.73;14.95;;;;;;;14.53;90.67;101336.91;5034119;28;20029;-77
2023/05/22 05:10:58;;;;;;;22.33;14.63;;;;;;;14.56;90.17;101349.03;5029281;28;20392;-78
2023/05/22 05:13:23;;;;;;;23.58;14.90;;;;;;;14.59;89.62;101348.94;5030851;28;20097;-77
2023/05/22 05:15:49;;;;;;;23.58;15.05;;;;;;;14.58;89.90;101334.13;5034835;28;20028;-77
2023/05/22 05:18:14;;;;;;;23.73;16.13;;;;;;;14.59;89.42;101341.06;5034546;28;20030;-77
2023/05/22 05:20:39;;;;;;;26.00;16.05;;;;;;;14.57;88.77;101337.66;5032256;28;20032;-77
2023/05/22 05:23:04;;;;;;;27.73;16.33;;;;;;;14.55;88.87;101344.69;5034612;28;20032;-77
2023/05/22 05:25:30;;;;;;;27.65;16.13;;;;;;;14.55;89.17;101344.69;5033976;28;20362;-77
2023/05/22 05:27:56;;;;;;;28.65;16.63;;;;;;;14.55;88.82;101349.94;5034648;28;20431;-77
2023/05/22 05:30:21;;;;;;;27.85;17.00;;;;;;;14.52;89.12;101348.28;5034089;28;20030;-77
2023/05/22 05:32:47;;;;;;;27.55;16.38;;;;;;;14.52;89.35;101342.19;5032692;28;20021;-77
2023/05/22 05:35:12;;;;;;;29.33;16.65;;;;;;;14.55;89.65;101349.94;5034230;28;20021;-77
2023/05/22 05:37:37;;;;;;;30.48;17.13;;;;;;;14.58;89.61;101355.06;5034605;28;20028;-77
2023/05/22 05:40:05;;;;;;;32.10;17.02;;;;;;;14.60;89.18;101353.25;5034376;28;20025;-77
2023/05/22 05:42:31;;;;;;;29.38;16.75;;;;;;;14.62;88.81;101356.69;5033957;28;20037;-77
2023/05/22 05:44:56;;;;;;;28.60;17.02;;;;;;;14.61;88.68;101362.84;5033878;28;20033;-77
2023/05/22 05:47:22;;;;;;;30.02;17.40;;;;;;;14.57;89.09;101358.59;5034282;28;20029;-77
2023/05/22 05:49:48;;;;;;;31.20;16.80;;;;;;;14.54;88.92;101358.69;5034396;28;20511;-77
2023/05/22 05:52:13;;;;;;;31.40;17.35;;;;;;;14.51;88.72;101358.81;5034083;28;20045;-77
2023/05/22 05:54:45;;;;;;;27.40;16.75;;;;;;;14.51;89.50;101362.28;5034112;28;20100;-77
2023/05/22 05:57:10;;;;;;;27.70;15.98;;;;;;;14.57;89.45;101363.84;5034384;28;20473;-77
2023/05/22 05:59:35;;;;;;;28.17;16.92;;;;;;;14.58;88.91;101370.78;5033966;28;20068;-77
2023/05/22 06:02:01;;;;;;;31.33;16.88;;;;;;;14.54;88.91;101358.69;5034152;28;20079;-77
2023/05/22 06:04:27;;;;;;;29.58;18.17;;;;;;;14.53;89.42;101359.59;5032691;28;20033;-77
2023/05/22 06:06:52;;;;;;;29.00;17.02;;;;;;;14.56;89.67;101365.63;5033882;28;20041;-77
2023/05/22 06:09:17;;;;;;;28.00;16.73;;;;;;;14.60;89.29;101358.50;5033991;28;20084;-77
2023/05/22 06:11:43;;;;;;;29.90;16.85;;;;;;;14.61;89.25;101364.56;5033919;28;20021;-77
2023/05/22 06:14:09;;;;;;;26.98;15.90;;;;;;;14.63;89.96;101362.75;5033914;28;20026;-77
2023/05/22 06:16:34;;;;;;;28.20;17.02;;;;;;;14.65;89.75;101366.19;5032570;28;20512;-77
2023/05/22 06:18:59;;;;;;;27.50;16.05;;;;;;;14.65;89.93;101371.44;5033729;28;20025;-77
2023/05/22 06:21:25;;;;;;;30.77;16.85;;;;;;;14.63;89.50;101371.50;5033736;28;20365;-77
2023/05/22 06:23:50;;;;;;;30.70;17.52;;;;;;;14.60;90.11;101384.69;5033634;28;20388;-77
2023/05/22 06:26:16;;;;;;;33.38;17.10;;;;;;;14.63;90.62;101375.84;5033773;28;20104;-77
2023/05/22 06:28:42;;;;;;;28.42;16.92;;;;;;;14.62;90.62;101377.63;5033474;28;20137;-77
2023/05/22 06:31:08;;;;;;;30.10;17.10;;;;;;;14.64;89.69;101381.06;5033600;28;20022;-77
2023/05/22 06:33:36;;;;;;;36.67;18.65;;;;;;;14.60;90.19;101384.69;5033578;28;20014;-77
2023/05/22 06:36:07;;;;;;;33.05;17.60;;;;;;;14.62;91.00;101382.00;5033751;28;20025;-77
2023/05/22 06:38:33;;;;;;;36.45;18.58;;;;;;;14.65;90.11;101387.13;5032161;28;20152;-77
2023/05/22 06:40:58;;;;;;;36.90;18.95;;;;;;;14.68;90.63;101376.59;5033615;28;20041;-77
2023/05/22 06:43:23;;;;;;;37.35;19.63;;;;;;;14.71;89.63;101381.72;5033189;28;20061;-77
2023/05/22 06:45:49;;;;;;;30.45;17.92;;;;;;;14.74;90.00;101386.00;5031895;28;20022;-77
2023/05/22 06:48:14;;;;;;;30.15;18.63;;;;;;;14.79;91.04;101389.31;5032083;28;20036;-77
2023/05/22 06:50:40;;;;;;;31.02;18.23;;;;;;;14.85;89.69;101389.13;5033316;28;20033;-77
2023/05/22 06:53:05;;;;;;;35.83;18.85;;;;;;;14.87;90.38;101388.16;5032673;28;20081;-77
2023/05/22 06:55:30;;;;;;;32.65;18.48;;;;;;;14.96;90.15;101391.34;5032533;28;20484;-77
2023/05/22 06:57:56;;;;;;;32.97;17.98;;;;;;;15.01;89.34;101394.66;5033193;28;20477;-77
2023/05/22 07:00:21;;;;;;;28.42;17.45;;;;;;;15.05;90.37;101400.63;5033092;28;20025;-77
2023/05/22 07:02:46;;;;;;;30.70;16.85;;;;;;;15.12;90.58;101402.13;5032962;28;20034;-77
2023/05/22 07:05:12;;;;;;;30.05;18.20;;;;;;;15.14;89.41;101402.94;5032908;28;20033;-78
2023/05/22 07:07:37;;;;;;;32.22;18.27;;;;;;;15.19;90.44;101403.66;5032978;28;20046;-82
2023/05/22 07:10:02;;;;;;;33.85;18.65;;;;;;;15.27;90.06;101408.59;5032433;28;20488;-77
2023/05/22 07:12:28;;;;;;;31.48;17.75;;;;;;;15.32;89.87;101418.00;5032759;28;20116;-77
2023/05/22 07:14:54;;;;;;;29.73;18.02;;;;;;;15.39;89.51;101413.41;5032880;28;20022;-77
2023/05/22 07:17:20;;;;;;;38.53;18.10;;;;;;;15.44;89.34;101418.47;5032964;28;20034;-77
2023/05/22 07:19:46;;;;;;;27.30;16.85;;;;;;;15.49;89.99;101421.78;5031675;28;20040;-77
2023/05/22 07:22:12;;;;;;;30.02;17.85;;;;;;;15.55;90.45;101416.28;5032851;28;20034;-77
2023/05/22 07:24:37;;;;;;;28.65;18.08;;;;;;;15.58;89.28;101418.78;5032712;28;20030;-77
2023/05/22 07:27:03;;;;;;;28.10;17.15;;;;;;;15.63;89.97;101416.88;5032789;28;20022;-77
2023/05/22 07:29:28;;;;;;;33.65;18.80;;;;;;;15.68;89.00;101423.72;5033126;28;20025;-77
2023/05/22 07:31:53;;;;;;;29.13;17.80;;;;;;;15.73;89.35;101413.88;5031487;28;20025;-77
2023/05/22 07:34:19;;;;;;;29.55;18.20;;;;;;;15.79;89.19;101416.28;5032767;28;20545;-77
2023/05/22 07:36:44;;;;;;;29.30;16.75;;;;;;;15.88;89.06;101423.84;5032838;28;20018;-77
2023/05/22 07:39:10;;;;;;;33.10;18.98;;;;;;;15.96;88.71;101420.03;5032707;28;20465;-77
2023/05/22 07:41:35;;;;;;;29.85;17.65;;;;;;;16.05;88.67;101417.06;5032818;28;20377;-77
2023/05/22 07:44:00;;;;;;;31.23;17.77;;;;;;;16.10;88.18;101430.84;5031344;28;20040;-77
2023/05/22 07:46:26;;;;;;;29.70;17.85;;;;;;;16.15;88.78;101428.91;5032537;28;20022;-77
2023/05/22 07:48:51;;;;;;;28.83;16.80;;;;;;;16.20;87.16;101428.72;5032711;28;20087;-77
2023/05/22 07:51:16;;;;;;;33.78;18.17;;;;;;;16.24;87.97;101431.16;5032563;28;20390;-77
2023/05/22 07:53:41;;;;;;;31.15;16.98;;;;;;;16.32;87.06;101430.00;5032483;28;20069;-77
2023/05/22 07:56:07;;;;;;;30.27;17.45;;;;;;;16.39;86.37;101431.47;5032413;28;20477;-77
2023/05/22 07:58:32;;;;;;;30.17;16.85;;;;;;;16.46;85.45;101429.44;5032484;28;20029;-77
2023/05/22 08:00:58;;;;;;;33.28;17.52;;;;;;;16.50;85.68;101431.88;5032470;28;20049;-77
2023/05/22 08:03:23;;;;;;;27.40;16.98;;;;;;;16.57;85.60;101434.25;5032487;28;20026;-77
2023/05/22 08:05:48;;;;;;;28.55;16.98;;;;;;;16.62;85.40;101427.88;5034386;28;20373;-77
2023/05/22 08:08:13;;;;;;;29.25;16.92;;;;;;;16.69;85.47;101425.84;5036159;28;20021;-77
2023/05/22 08:10:39;;;;;;;30.80;17.38;;;;;;;16.75;84.25;101428.19;5036139;28;20393;-77
2023/05/22 08:13:07;;;;;;;29.27;17.00;;;;;;;16.82;85.11;101428.81;5035996;28;20113;-77
2023/05/22 08:15:33;;;;;;;29.08;17.42;;;;;;;16.90;85.50;101425.88;5036181;28;20025;-77
2023/05/22 08:17:58;;;;;;;30.83;17.27;;;;;;;16.92;84.04;101421.38;5036342;28;20263;-76
2023/05/22 08:20:24;;;;;;;34.63;17.30;;;;;;;16.93;83.82;101417.81;5036124;28;20207;-77
2023/05/22 08:22:49;;;;;;;33.35;17.42;;;;;;;16.96;84.31;101417.72;5035990;28;20021;-77
2023/05/22 08:25:14;;;;;;;31.75;17.27;;;;;;;16.97;83.60;101412.41;5034463;28;20038;-77
2023/05/22 08:27:40;;;;;;;29.90;17.95;;;;;;;17.00;83.41;101416.69;5035883;28;20461;-77
2023/05/22 08:30:06;;;;;;;36.05;17.88;;;;;;;16.97;84.98;101414.19;5035865;28;20033;-77
2023/05/22 08:32:31;;;;;;;31.63;18.45;;;;;;;16.98;84.24;101413.25;5035719;28;20029;-77
2023/05/22 08:34:58;;;;;;;30.58;18.08;;;;;;;17.02;84.78;101417.47;5035712;28;20067;-77
2023/05/22 08:37:23;;;;;;;31.10;17.85;;;;;;;17.05;84.75;101414.72;5035820;28;20190;-77
2023/05/22 08:39:48;;;;;;;29.60;17.73;;;;;;;17.09;84.68;101418.88;5035621;28;20462;-77
2023/05/22 08:42:14;;;;;;;32.83;19.40;;;;;;;17.13;83.88;101420.47;5035568;28;20100;-77
2023/05/22 08:44:39;;;;;;;29.77;17.63;;;;;;;17.18;83.70;101417.63;5035624;28;20025;-77
2023/05/22 08:47:08;;;;;;;31.85;18.27;;;;;;;17.28;84.78;101418.06;5035610;28;20021;-76
2023/05/22 08:49:34;;;;;;;27.88;18.30;;;;;;;17.36;84.36;101421.22;5035546;28;20428;-77
2023/05/22 08:52:06;;;;;;;33.25;18.63;;;;;;;17.42;83.79;101425.34;5035152;28;20073;-77
2023/05/22 08:54:35;;;;;;;29.63;18.40;;;;;;;17.45;83.57;101419.97;5034134;28;20415;-77
2023/05/22 08:57:00;;;;;;;31.90;19.30;;;;;;;17.50;84.16;101415.34;5035347;28;20079;-77
2023/05/22 08:59:27;;;;;;;31.55;18.77;;;;;;;17.52;83.39;101420.53;5035501;28;20021;-77
2023/05/22 09:01:53;;;;;;;29.52;18.25;;;;;;;17.56;83.88;101422.09;5035185;28;20044;-77
2023/05/22 09:04:22;;;;;;;32.10;19.35;;;;;;;17.58;83.90;101425.53;5035144;28;20415;-77
2023/05/22 09:06:48;;;;;;;27.92;18.50;;;;;;;17.63;83.31;101431.41;5035122;28;20045;-77
2023/05/22 09:09:13;;;;;;;31.13;18.77;;;;;;;17.73;83.43;101426.56;5035084;28;20030;-77
2023/05/22 09:11:39;;;;;;;30.98;18.73;;;;;;;17.83;83.29;101430.50;5035049;28;20036;-77
2023/05/22 09:14:08;;;;;;;31.25;19.38;;;;;;;17.91;82.11;101427.50;5035061;28;20133;-77
2023/05/22 09:16:43;;;;;;;29.02;18.48;;;;;;;17.96;82.99;101429.91;5034332;28;20029;-77
2023/05/22 09:19:08;;;;;;;28.80;19.05;;;;;;;17.98;82.03;101426.28;5035133;28;20108;-76
2023/05/22 09:21:35;;;;;;;34.80;20.67;;;;;;;17.93;81.25;101420.38;5034722;28;20060;-76
2023/05/22 09:24:01;;;;;;;29.40;19.23;;;;;;;17.93;82.33;101423.03;5034702;28;20199;-77
2023/05/22 09:26:28;;;;;;;30.38;18.58;;;;;;;18.00;83.07;101419.19;5034708;28;20528;-77
2023/05/22 09:28:53;;;;;;;25.77;17.52;;;;;;;18.07;82.63;101427.63;5034650;28;20388;-76
2023/05/22 09:31:18;;;;;;;29.38;18.95;;;;;;;18.08;80.73;101415.34;5034820;28;20029;-76
2023/05/22 09:33:44;;;;;;;32.00;18.80;;;;;;;18.10;82.48;101416.13;5034615;28;20025;-77
2023/05/22 09:36:09;;;;;;;29.48;18.80;;;;;;;18.11;80.99;101416.03;5034760;28;20021;-77
2023/05/22 09:38:35;;;;;;;28.85;18.52;;;;;;;18.16;83.04;101421.94;5034657;28;20021;-76
2023/05/22 09:41:00;;;;;;;28.63;19.27;;;;;;;18.18;79.96;101420.09;5034563;28;20030;-77
2023/05/22 09:43:26;;;;;;;26.73;17.77;;;;;;;18.16;81.81;101416.69;5034336;28;20088;-77
2023/05/22 09:46:02;;;;;;;27.15;18.60;;;;;;;18.18;82.27;101411.31;5034276;28;20029;-77
2023/05/22 09:48:28;;;;;;;25.05;17.30;;;;;;;18.20;80.46;101407.69;5034579;28;20071;-81
2023/05/22 09:50:54;;;;;;;27.58;18.75;;;;;;;18.21;79.86;101403.28;5034558;28;20171;-77
2023/05/22 09:53:26;;;;;;;29.50;19.45;;;;;;;18.25;81.61;101399.56;5034106;28;20046;-77
2023/05/22 09:55:55;;;;;;;27.92;18.85;;;;;;;18.35;83.15;101405.25;5034240;28;20017;-77
2023/05/22 09:58:25;;;;;;;27.25;18.45;;;;;;;18.41;81.59;101409.34;5034154;28;20031;-77
2023/05/22 10:00:51;;;;;;;24.77;17.88;;;;;;;18.47;79.73;101403.75;5034043;28;20373;-77
2023/05/22 10:03:22;;;;;;;27.60;18.58;;;;;;;18.54;81.99;101405.16;5033935;28;20029;-77
2023/05/22 10:05:50;;;;;;;26.48;18.15;;;;;;;18.55;79.90;101401.59;5034372;28;20461;-77
2023/05/22 10:08:22;;;;;;;27.25;17.92;;;;;;;18.58;80.64;101404.09;5034156;28;20185;-78
2023/05/22 10:10:53;;;;;;;27.63;17.75;;;;;;;18.65;80.33;101405.47;5034138;28;20453;-77
2023/05/22 10:13:22;;;;;;;25.45;17.25;;;;;;;18.72;80.62;101402.53;5033868;28;20021;-77
2023/05/22 10:15:48;;;;;;;26.27;17.63;;;;;;;18.75;81.18;101391.81;5033832;28;20029;-77
2023/05/22 10:18:17;;;;;;;29.17;19.33;;;;;;;18.75;79.61;101402.38;5033837;28;20029;-77
2023/05/22 10:20:43;;;;;;;26.98;18.48;;;;;;;18.76;79.89;101398.81;5033845;28;20100;-77
2023/05/22 10:23:08;;;;;;;26.17;17.23;;;;;;;18.82;78.90;101393.19;5033659;28;20500;-77
2023/05/22 10:25:36;;;;;;;25.10;16.52;;;;;;;18.88;77.65;101403.44;5033524;28;20025;-78
2023/05/22 10:28:02;;;;;;;24.38;16.67;;;;;;;18.96;79.23;101398.63;5033568;28;20029;-77
2023/05/22 10:30:39;;;;;;;26.98;17.33;;;;;;;19.05;78.61;101399.09;5033676;28;20063;-77
2023/05/22 10:33:12;;;;;;;25.25;17.38;;;;;;;19.07;77.91;101397.22;5033379;28;20033;-77
2023/05/22 10:35:43;;;;;;;30.23;18.88;;;;;;;19.13;78.03;101403.97;5033602;28;20428;-77
2023/05/22 10:38:52;;;;;;;26.85;17.25;;;;;;;19.19;77.72;101399.22;5033563;28;20025;-77
2023/05/22 10:41:18;;;;;;;22.95;15.73;;;;;;;19.26;79.01;101397.97;5033426;28;20037;-77
2023/05/22 10:43:47;;;;;;;25.15;17.50;;;;;;;19.31;74.90;101394.19;5033348;28;20068;-78
2023/05/22 10:46:12;;;;;;;24.42;15.80;;;;;;;19.36;77.02;101386.91;5033357;28;20032;-79
2023/05/22 10:48:39;;;;;;;26.00;17.05;;;;;;;19.40;76.55;101391.09;5033410;28;20021;-77
2023/05/22 10:51:07;;;;;;;23.85;15.90;;;;;;;19.41;77.31;101391.00;5033174;28;20025;-78
2023/05/22 10:53:34;;;;;;;23.52;15.68;;;;;;;19.41;76.71;101391.00;5033011;28;20068;-77
2023/05/22 10:56:12;;;;;;;24.70;16.15;;;;;;;19.43;75.21;101393.56;5033212;28;20520;-78
2023/05/22 10:58:38;;;;;;;26.67;17.52;;;;;;;19.46;75.53;101397.81;5033276;28;20390;-78
2023/05/22 11:01:11;;;;;;;25.60;17.42;;;;;;;19.51;77.01;101380.78;5033247;28;20079;-77
2023/05/22 11:03:58;;;;;;;25.20;16.52;;;;;;;19.58;76.60;101385.72;5032918;28;20376;-78
2023/05/22 11:06:46;;;;;;;26.63;16.63;;;;;;;19.56;75.65;101378.75;5033174;28;20315;-78
2023/05/22 11:09:27;;;;;;;22.98;15.80;;;;;;;19.60;75.48;101387.34;5033162;28;20029;-78